Time;durP1;ratioP1;P1;durP2;ratioP2;P2;SDS_P1;SDS_P2;PMS_P1;PMS_P2;Temp;Humidity;BMP_temperature;BMP_pressure;BME280_temperature;BME280_humidity;BME280_pressure;Samples;Min_cycle;Max_cycle;Signal;HPM_P1;HPM_P2
2023/10/17 00:00:38;;;;;;;8.75;4.65;;;8.10;99.90;;;;;;5056058;28;20047;-50
2023/10/17 00:03:05;;;;;;;12.27;5.70;;;8.00;99.90;;;;;;5055786;28;20102;-50
2023/10/17 00:05:31;;;;;;;8.98;4.50;;;8.00;99.90;;;;;;5055654;28;20022;-50
2023/10/17 00:07:58;;;;;;;11.00;4.63;;;8.00;99.90;;;;;;5054563;28;20040;-50
2023/10/17 00:10:24;;;;;;;8.05;5.13;;;7.90;99.90;;;;;;5054287;28;20037;-50
2023/10/17 00:12:52;;;;;;;8.38;4.45;;;7.90;99.90;;;;;;5055832;28;20100;-51
2023/10/17 00:15:28;;;;;;;6.80;4.85;;;7.90;99.90;;;;;;5054933;28;20492;-51
2023/10/17 00:18:03;;;;;;;7.22;4.40;;;7.80;99.90;;;;;;5055578;28;20032;-50
2023/10/17 00:20:37;;;;;;;8.20;4.63;;;7.80;99.90;;;;;;5055415;28;20079;-50
2023/10/17 00:23:04;;;;;;;8.88;4.25;;;7.80;99.90;;;;;;5055589;28;20029;-51
2023/10/17 00:25:30;;;;;;;9.73;4.18;;;7.80;99.90;;;;;;5054302;28;20458;-50
2023/10/17 00:27:57;;;;;;;7.53;4.32;;;7.90;99.90;;;;;;5054204;28;20032;-50
2023/10/17 00:30:23;;;;;;;8.60;4.68;;;7.90;99.90;;;;;;5055258;28;20101;-50
2023/10/17 00:32:52;;;;;;;7.65;4.40;;;8.00;99.90;;;;;;5055091;28;20119;-50
2023/10/17 00:35:20;;;;;;;7.32;4.05;;;8.00;99.90;;;;;;5055076;28;20086;-49
2023/10/17 00:38:07;;;;;;;8.10;4.10;;;8.00;99.90;;;;;;5055194;28;20025;-51
2023/10/17 00:43:14;;;;;;;8.48;3.60;;;8.00;99.90;;;;;;5055412;28;20037;-47
2023/10/17 00:45:40;;;;;;;7.80;3.40;;;8.00;99.90;;;;;;5055864;28;20443;-48
2023/10/17 00:48:08;;;;;;;7.18;3.40;;;8.00;99.90;;;;;;5055067;28;20036;-46
2023/10/17 00:50:38;;;;;;;8.05;3.20;;;8.20;99.90;;;;;;5054751;28;20122;-47
2023/10/17 00:53:05;;;;;;;6.72;3.35;;;8.20;99.90;;;;;;5054139;28;20477;-47
2023/10/17 00:55:32;;;;;;;5.57;3.50;;;8.20;99.90;;;;;;5055002;28;20045;-47
2023/10/17 00:57:58;;;;;;;6.13;3.40;;;8.10;99.90;;;;;;5054811;28;20051;-47
2023/10/17 01:00:29;;;;;;;5.20;3.20;;;8.00;99.90;;;;;;5020699;28;20470;-47
2023/10/17 01:03:01;;;;;;;6.53;3.70;;;7.90;99.90;;;;;;5055014;28;20040;-50
2023/10/17 01:05:26;;;;;;;5.28;3.30;;;7.90;99.90;;;;;;5054647;28;20171;-50
2023/10/17 01:07:52;;;;;;;8.98;3.58;;;7.80;99.90;;;;;;5053772;28;20112;-50
2023/10/17 01:10:17;;;;;;;7.57;3.15;;;7.90;99.90;;;;;;5055112;28;20044;-50
2023/10/17 01:13:03;;;;;;;6.45;2.60;;;8.00;99.90;;;;;;5037063;28;20028;-50
2023/10/17 01:15:32;;;;;;;5.10;2.42;;;8.10;99.90;;;;;;5054866;28;20373;-50
2023/10/17 01:18:04;;;;;;;5.55;3.05;;;8.20;99.90;;;;;;5053552;28;20037;-50
2023/10/17 01:20:32;;;;;;;5.32;3.10;;;8.40;99.90;;;;;;5054415;28;20033;-50
2023/10/17 01:23:00;;;;;;;4.70;2.92;;;8.30;99.90;;;;;;5054537;28;20122;-50
2023/10/17 01:25:27;;;;;;;4.55;2.67;;;8.30;99.90;;;;;;5055771;28;20345;-50
2023/10/17 01:27:54;;;;;;;6.82;2.80;;;8.30;99.90;;;;;;5058792;28;20060;-50
2023/10/17 01:30:20;;;;;;;4.18;2.92;;;8.40;99.90;;;;;;5058667;28;20028;-51
2023/10/17 01:32:48;;;;;;;5.65;3.00;;;8.40;99.90;;;;;;5058686;28;20458;-47
2023/10/17 01:35:19;;;;;;;4.40;2.88;;;8.40;99.90;;;;;;5058511;28;20434;-47
2023/10/17 01:37:47;;;;;;;5.70;2.53;;;8.30;99.90;;;;;;5058772;28;20123;-48
2023/10/17 01:40:22;;;;;;;4.88;2.80;;;8.20;99.90;;;;;;5058578;28;20040;-46
2023/10/17 01:42:50;;;;;;;6.47;2.80;;;8.10;99.90;;;;;;5058388;28;20040;-47
2023/10/17 01:45:16;;;;;;;5.00;2.65;;;8.00;99.90;;;;;;5058276;28;20450;-48
2023/10/17 01:47:43;;;;;;;5.63;2.58;;;7.90;99.90;;;;;;5058439;28;20362;-49
2023/10/17 01:50:10;;;;;;;5.30;2.70;;;7.80;99.90;;;;;;5058479;28;20319;-46
2023/10/17 01:52:37;;;;;;;3.97;2.72;;;7.80;99.90;;;;;;5058050;28;20474;-48
2023/10/17 01:55:10;;;;;;;6.30;2.88;;;7.70;99.90;;;;;;5058124;28;20035;-46
2023/10/17 01:57:40;;;;;;;5.80;2.88;;;7.60;99.90;;;;;;5058171;28;20036;-49
2023/10/17 02:00:16;;;;;;;;;;;7.60;99.90;;;;;;5058795;28;20104;-49
2023/10/17 02:02:42;;;;;;;8.00;3.78;;;7.60;99.90;;;;;;5058073;28;19909;-48
2023/10/17 02:05:12;;;;;;;9.90;3.92;;;7.60;99.90;;;;;;5057970;28;20124;-49
2023/10/17 02:07:38;;;;;;;6.80;3.80;;;7.60;99.90;;;;;;5058066;28;20067;-48
2023/10/17 02:10:07;;;;;;;6.18;3.50;;;7.60;99.90;;;;;;5058039;28;20518;-48
2023/10/17 02:12:33;;;;;;;6.83;3.60;;;7.60;99.90;;;;;;5057661;28;20101;-51
2023/10/17 02:15:00;;;;;;;6.72;3.47;;;7.60;99.90;;;;;;5058147;28;20297;-48
2023/10/17 02:17:26;;;;;;;8.15;3.35;;;7.70;99.90;;;;;;5057515;28;20446;-49
2023/10/17 02:19:53;;;;;;;7.05;3.22;;;7.70;99.90;;;;;;5057810;28;20037;-50
2023/10/17 02:22:19;;;;;;;6.55;3.00;;;7.70;99.90;;;;;;5057665;28;20159;-50
2023/10/17 02:24:44;;;;;;;5.55;2.65;;;7.80;99.90;;;;;;5057502;28;20120;-51
2023/10/17 02:27:13;;;;;;;4.60;2.58;;;7.80;99.90;;;;;;5057638;28;20033;-51
2023/10/17 02:29:39;;;;;;;5.05;2.50;;;7.80;99.90;;;;;;5056668;28;20040;-50
2023/10/17 02:32:11;;;;;;;5.95;2.30;;;7.80;99.90;;;;;;5057544;28;20028;-50
2023/10/17 02:34:37;;;;;;;4.57;2.60;;;7.80;99.90;;;;;;5057314;28;20373;-50
2023/10/17 02:37:04;;;;;;;5.68;2.30;;;7.80;99.90;;;;;;5056597;28;20416;-49
2023/10/17 02:39:30;;;;;;;4.43;2.30;;;7.80;99.90;;;;;;5056307;28;20025;-49
2023/10/17 02:42:06;;;;;;;5.97;2.10;;;7.70;99.90;;;;;;5057371;28;20090;-48
2023/10/17 02:44:32;;;;;;;4.65;1.92;;;7.70;99.90;;;;;;5057073;28;20059;-50
2023/10/17 02:46:58;;;;;;;4.03;1.70;;;7.70;99.90;;;;;;5057160;28;20464;-49
2023/10/17 02:49:26;;;;;;;3.38;1.90;;;7.70;99.90;;;;;;5056049;28;20033;-51
2023/10/17 02:51:54;;;;;;;2.38;1.73;;;7.80;99.90;;;;;;5056737;28;20435;-49
2023/10/17 02:54:20;;;;;;;3.10;1.98;;;7.70;99.90;;;;;;5056812;28;20401;-47
2023/10/17 02:56:46;;;;;;;5.22;1.80;;;7.70;99.90;;;;;;5055771;28;20036;-49
2023/10/17 02:59:12;;;;;;;4.13;1.90;;;7.70;99.90;;;;;;5056937;28;20083;-50
2023/10/17 03:01:39;;;;;;;3.92;1.83;;;7.60;99.90;;;;;;5057062;28;20025;-49
2023/10/17 03:04:09;;;;;;;5.85;2.10;;;7.50;99.90;;;;;;5056424;28;20067;-49
2023/10/17 03:06:37;;;;;;;5.57;1.95;;;7.50;99.90;;;;;;5055628;28;20067;-50
2023/10/17 03:09:16;;;;;;;4.53;2.00;;;7.50;99.90;;;;;;5056040;28;20048;-50
2023/10/17 03:11:51;;;;;;;3.95;2.05;;;7.40;99.90;;;;;;5056985;28;20380;-51
2023/10/17 03:14:23;;;;;;;3.10;2.20;;;7.40;99.90;;;;;;5055656;28;20033;-48
2023/10/17 03:16:52;;;;;;;3.72;2.28;;;7.40;99.90;;;;;;5056643;28;20056;-50
2023/10/17 03:19:25;;;;;;;3.50;1.93;;;7.30;99.90;;;;;;5056872;28;20116;-50
2023/10/17 03:21:54;;;;;;;4.53;2.15;;;7.30;99.90;;;;;;5056717;28;20447;-50
2023/10/17 03:24:38;;;;;;;4.33;2.37;;;7.30;99.90;;;;;;5056321;28;20044;-50
2023/10/17 03:27:04;;;;;;;4.13;2.00;;;7.30;99.90;;;;;;5056586;28;20469;-50
2023/10/17 03:29:34;;;;;;;5.22;1.90;;;7.40;99.90;;;;;;5056536;28;20063;-47
2023/10/17 03:32:04;;;;;;;4.40;1.98;;;7.40;99.90;;;;;;5056478;28;20119;-47
2023/10/17 03:34:35;;;;;;;4.65;2.22;;;7.30;99.90;;;;;;5056177;28;20116;-50
2023/10/17 03:39:52;;;;;;;9.57;2.03;;;7.20;99.90;;;;;;5055452;28;20020;-50
2023/10/17 03:48:13;;;;;;;5.60;2.28;;;7.20;99.90;;;;;;5065526;28;20145;-50
2023/10/17 03:53:14;;;;;;;8.20;1.95;;;7.20;99.90;;;;;;5055167;28;20036;-47
2023/10/17 03:55:42;;;;;;;4.97;2.10;;;7.20;99.90;;;;;;5056099;28;20374;-49
2023/10/17 04:00:52;;;;;;;3.15;1.67;;;7.20;99.90;;;;;;5055911;28;20373;-50
2023/10/17 04:03:21;;;;;;;6.35;2.90;;;7.30;99.90;;;;;;5055727;28;20335;-50
2023/10/17 04:06:23;;;;;;;4.55;2.20;;;7.30;99.90;;;;;;5055544;28;20052;-50
2023/10/17 04:08:49;;;;;;;5.00;1.90;;;7.30;99.90;;;;;;5054961;28;20045;-50
2023/10/17 04:11:18;;;;;;;7.07;2.30;;;7.30;99.90;;;;;;5055399;28;20044;-48
2023/10/17 04:13:50;;;;;;;5.15;2.60;;;7.30;99.90;;;;;;5054625;28;20454;-47
2023/10/17 04:16:26;;;;;;;5.35;2.65;;;7.30;99.90;;;;;;5055205;28;20124;-50
2023/10/17 04:19:01;;;;;;;3.60;2.00;;;7.40;99.90;;;;;;5054563;28;20235;-50
2023/10/17 04:23:55;;;;;;;5.05;2.53;;;7.50;99.90;;;;;;5054350;28;20098;-50
2023/10/17 04:26:27;;;;;;;9.23;4.53;;;7.50;99.90;;;;;;5055286;28;20374;-50
2023/10/17 04:29:43;;;;;;;8.65;4.43;;;7.50;99.90;;;;;;5055413;28;20373;-47
2023/10/17 04:31:47;;;;;;;9.77;4.38;;;7.60;99.90;;;;;;5057538;28;20040;-50
2023/10/17 04:34:21;;;;;;;8.77;3.97;;;7.60;99.90;;;;;;5055348;28;20021;-50
2023/10/17 04:36:51;;;;;;;5.50;3.70;;;7.60;99.90;;;;;;5055126;28;20044;-50
2023/10/17 04:39:34;;;;;;;9.10;4.00;;;7.70;99.90;;;;;;5054686;28;20042;-50
2023/10/17 04:44:32;;;;;;;8.60;4.40;;;7.70;99.90;;;;;;5055355;28;20119;-50
2023/10/17 04:49:35;;;;;;;20.13;5.40;;;7.70;99.90;;;;;;5055006;28;20029;-50
2023/10/17 04:52:13;;;;;;;7.25;4.30;;;7.70;99.90;;;;;;5054943;28;20060;-50
2023/10/17 04:54:42;;;;;;;6.05;3.55;;;7.60;99.90;;;;;;5054728;28;20067;-50
2023/10/17 04:57:18;;;;;;;4.78;3.70;;;7.70;99.90;;;;;;5053692;28;20413;-50
2023/10/17 05:03:03;;;;;;;5.20;3.63;;;7.60;99.90;;;;;;5053667;28;20029;-50
2023/10/17 05:07:30;;;;;;;6.47;3.60;;;7.70;99.90;;;;;;5054632;28;20145;-50
2023/10/17 06:18:32;;;;;;;11.90;5.80;;;9.10;99.90;;;;;;5057457;28;20186;-45
2023/10/17 06:34:38;;;;;;;10.73;6.97;;;8.60;99.90;;;;;;5057541;28;20469;-48
2023/10/17 06:37:07;;;;;;;13.00;8.40;;;8.60;99.90;;;;;;5057317;28;20064;-47
2023/10/17 06:39:46;;;;;;;10.73;6.07;;;8.50;99.90;;;;;;5057302;28;20037;-48
2023/10/17 06:42:15;;;;;;;8.67;6.03;;;8.60;99.90;;;;;;5041152;28;20442;-46
2023/10/17 06:44:54;;;;;;;12.38;6.75;;;8.70;99.90;;;;;;5056070;28;20123;-46
2023/10/17 06:47:41;;;;;;;12.38;6.70;;;8.70;99.90;;;;;;5057073;28;20040;-46
2023/10/17 06:55:28;;;;;;;10.60;6.80;;;8.80;99.90;;;;;;5056950;28;20037;-47
2023/10/17 06:57:56;;;;;;;14.05;8.13;;;8.70;99.90;;;;;;5056942;28;20033;-46
2023/10/17 07:00:42;;;;;;;12.13;6.28;;;8.80;99.90;;;;;;5056814;28;20040;-46
2023/10/17 07:03:09;;;;;;;11.70;7.07;;;8.80;99.90;;;;;;5056899;28;20052;-49
2023/10/17 07:05:38;;;;;;;9.30;5.60;;;8.90;99.90;;;;;;5056625;28;20057;-49
2023/10/17 07:08:13;;;;;;;12.88;6.50;;;9.10;99.90;;;;;;5056656;28;20041;-45
2023/10/17 07:10:39;;;;;;;12.35;6.43;;;9.20;99.90;;;;;;5056577;28;20120;-45
2023/10/17 07:13:48;;;;;;;9.68;5.75;;;9.30;99.90;;;;;;5055351;28;20116;-46
2023/10/17 07:16:16;;;;;;;12.10;6.22;;;9.30;99.90;;;;;;5056087;28;20048;-46
2023/10/17 07:18:51;;;;;;;7.22;4.78;;;9.60;99.90;;;;;;5056226;28;20535;-46
2023/10/17 07:21:17;;;;;;;10.43;4.57;;;9.60;99.90;;;;;;5056519;28;20123;-48
2023/10/17 07:23:45;;;;;;;15.27;5.43;;;9.70;99.90;;;;;;5056265;28;20029;-49
2023/10/17 07:26:17;;;;;;;9.45;5.32;;;9.80;99.90;;;;;;5055036;28;20404;-47
2023/10/17 07:28:50;;;;;;;9.65;5.03;;;9.90;99.90;;;;;;5056557;28;20159;-48
2023/10/17 07:31:16;;;;;;;12.18;5.22;;;10.00;99.90;;;;;;5056085;28;20342;-46
2023/10/17 07:33:46;;;;;;;7.63;4.35;;;10.10;99.90;;;;;;5056182;28;20029;-45
2023/10/17 07:36:15;;;;;;;6.28;4.15;;;10.10;99.90;;;;;;5056135;28;20104;-46
2023/10/17 07:38:43;;;;;;;8.80;5.20;;;10.30;99.90;;;;;;5055977;28;20040;-46
2023/10/17 07:41:13;;;;;;;7.68;4.70;;;10.40;99.90;;;;;;5056172;28;20052;-50
2023/10/17 07:43:44;;;;;;;12.20;5.93;;;10.40;99.90;;;;;;5054867;28;20025;-53
2023/10/17 07:46:25;;;;;;;8.13;4.30;;;10.40;99.90;;;;;;5055927;28;20033;-48
2023/10/17 07:48:51;;;;;;;7.18;3.20;;;10.50;99.90;;;;;;5055233;28;20036;-48
2023/10/17 07:51:17;;;;;;;6.53;3.20;;;10.80;99.90;;;;;;5055402;28;20033;-49
2023/10/17 07:53:46;;;;;;;7.55;3.20;;;11.20;99.90;;;;;;5055846;28;20029;-47
2023/10/17 07:56:21;;;;;;;6.95;3.40;;;11.30;99.90;;;;;;5055550;28;20032;-48
2023/10/17 07:59:04;;;;;;;6.55;3.17;;;11.40;99.90;;;;;;5055462;28;20362;-47
2023/10/17 08:01:57;;;;;;;5.90;3.10;;;11.40;99.90;;;;;;5055750;28;20021;-48
2023/10/17 08:04:24;;;;;;;6.63;2.90;;;11.50;99.90;;;;;;5055074;28;20374;-55
2023/10/17 08:06:51;;;;;;;5.68;2.63;;;11.60;99.90;;;;;;5054440;28;20087;-49
2023/10/17 08:09:35;;;;;;;7.50;3.15;;;11.60;99.90;;;;;;5054358;28;20029;-50
2023/10/17 08:12:03;;;;;;;5.03;2.50;;;11.70;99.90;;;;;;5055588;28;20029;-53
2023/10/17 08:14:50;;;;;;;8.02;2.85;;;11.80;99.90;;;;;;5055449;28;20037;-55
2023/10/17 08:17:16;;;;;;;7.97;2.72;;;12.00;99.90;;;;;;5055197;28;20060;-50
2023/10/17 08:22:53;;;;;;;5.95;2.35;;;12.40;99.90;;;;;;5054673;28;20070;-47
2023/10/17 08:25:14;;;;;;;8.52;2.67;;;12.50;99.90;;;;;;5054620;28;20040;-47
2023/10/17 08:30:23;;;;;;;6.47;2.35;;;12.80;99.90;;;;;;5055010;28;20033;-51
2023/10/17 08:32:55;;;;;;;5.72;2.70;;;12.90;99.90;;;;;;5054933;28;20048;-51
2023/10/17 08:35:25;;;;;;;5.53;2.70;;;12.90;99.90;;;;;;5054228;28;20041;-52
2023/10/17 08:37:52;;;;;;;7.90;2.80;;;13.00;99.90;;;;;;5053816;28;20029;-51
2023/10/17 08:40:32;;;;;;;6.00;2.70;;;13.00;99.90;;;;;;5054046;28;20450;-49
2023/10/17 08:43:11;;;;;;;9.45;3.20;;;13.10;99.90;;;;;;5053821;28;20352;-48
2023/10/17 08:45:38;;;;;;;11.60;4.50;;;13.30;99.90;;;;;;5054641;28;20033;-49
2023/10/17 08:48:06;;;;;;;6.60;3.50;;;13.80;99.90;;;;;;5053415;28;20374;-49
2023/10/17 08:50:37;;;;;;;8.57;4.20;;;13.90;99.90;;;;;;5053304;28;20032;-50
2023/10/17 08:53:06;;;;;;;8.57;3.80;;;14.00;99.90;;;;;;5054534;28;20029;-48
2023/10/17 08:55:32;;;;;;;6.70;3.77;;;14.00;99.90;;;;;;5054621;28;20358;-50
2023/10/17 08:57:59;;;;;;;4.72;2.72;;;14.10;99.90;;;;;;5054496;28;20288;-49
2023/10/17 09:03:09;;;;;;;4.72;2.28;;;14.00;99.90;;;;;;5054585;28;20025;-49
2023/10/17 09:06:03;;;;;;;6.00;2.70;;;13.80;99.90;;;;;;5053920;28;20049;-49
2023/10/17 09:11:29;;;;;;;4.35;2.30;;;13.70;99.90;;;;;;5061055;28;20135;-47
2023/10/17 09:14:14;;;;;;;6.15;2.90;;;13.60;99.90;;;;;;5054467;28;20179;-47
2023/10/17 09:16:42;;;;;;;6.72;3.28;;;13.50;99.90;;;;;;5054382;28;20025;-47
2023/10/17 09:19:10;;;;;;;7.05;3.00;;;13.60;99.90;;;;;;5054303;28;20033;-50
2023/10/17 09:21:41;;;;;;;5.43;3.35;;;13.70;99.90;;;;;;5053420;28;20369;-49
2023/10/17 09:24:29;;;;;;;5.65;3.40;;;13.90;99.90;;;;;;5054427;28;20029;-49
2023/10/17 09:26:56;;;;;;;8.07;2.88;;;14.00;99.90;;;;;;5053248;28;20029;-49
2023/10/17 09:29:22;;;;;;;5.75;3.08;;;14.00;99.90;;;;;;5054234;28;20082;-50
2023/10/17 09:31:50;;;;;;;4.72;3.13;;;14.20;99.90;;;;;;5054245;28;20036;-54
2023/10/17 09:34:16;;;;;;;4.20;2.97;;;14.40;99.90;;;;;;5053905;28;20040;-52
2023/10/17 09:36:42;;;;;;;6.60;2.88;;;14.60;98.90;;;;;;5053280;28;20025;-50
2023/10/17 09:39:15;;;;;;;5.43;2.95;;;14.80;95.60;;;;;;5053320;28;20033;-51
2023/10/17 09:41:41;;;;;;;8.50;3.45;;;15.00;96.60;;;;;;5037076;28;20331;-49
2023/10/17 09:44:10;;;;;;;5.43;3.90;;;15.20;96.80;;;;;;5054168;28;20035;-49
2023/10/17 09:46:36;;;;;;;7.15;3.42;;;15.00;97.60;;;;;;5055616;28;20442;-49
2023/10/17 09:49:02;;;;;;;7.45;3.00;;;14.80;98.20;;;;;;5057090;28;20033;-50
2023/10/17 09:51:33;;;;;;;5.40;2.85;;;14.90;98.50;;;;;;5040374;28;20386;-51
2023/10/17 09:53:58;;;;;;;6.07;2.70;;;15.00;97.20;;;;;;5056701;28;20068;-51
2023/10/17 09:56:36;;;;;;;5.82;3.00;;;14.60;95.90;;;;;;5056738;28;20025;-51
2023/10/17 09:59:05;;;;;;;7.65;3.25;;;14.60;98.30;;;;;;5040381;28;20029;-48
2023/10/17 10:01:31;;;;;;;7.18;3.10;;;14.90;96.70;;;;;;5057714;28;20124;-49
2023/10/17 10:03:57;;;;;;;5.15;2.58;;;15.20;95.10;;;;;;5058237;28;20100;-52
2023/10/17 10:06:30;;;;;;;3.67;2.28;;;15.30;91.60;;;;;;5056579;28;20076;-49
2023/10/17 10:09:24;;;;;;;5.15;2.45;;;15.40;89.70;;;;;;5056867;28;20371;-49
2023/10/17 10:11:49;;;;;;;7.35;3.47;;;15.40;91.30;;;;;;5056761;28;20048;-50
2023/10/17 10:14:27;;;;;;;5.20;2.60;;;15.60;94.60;;;;;;5057360;28;20439;-50
2023/10/17 10:16:55;;;;;;;4.82;2.10;;;15.60;95.30;;;;;;5057384;28;20045;-52
2023/10/17 10:19:21;;;;;;;5.93;2.80;;;15.40;92.30;;;;;;5057523;28;20074;-50
2023/10/17 10:22:00;;;;;;;3.08;2.40;;;15.50;90.40;;;;;;5057566;28;20171;-50
2023/10/17 10:24:29;;;;;;;6.13;2.60;;;15.60;84.50;;;;;;5057152;28;20109;-47
2023/10/17 10:27:19;;;;;;;4.05;2.78;;;16.10;82.50;;;;;;5057343;28;20040;-50
2023/10/17 10:29:47;;;;;;;5.07;3.00;;;16.40;87.90;;;;;;5057320;28;20040;-51
2023/10/17 10:32:25;;;;;;;5.10;2.50;;;17.00;87.60;;;;;;5056135;28;20036;-48
2023/10/17 10:34:51;;;;;;;7.25;3.10;;;17.30;80.50;;;;;;5057229;28;20064;-50
2023/10/17 10:37:17;;;;;;;6.65;3.08;;;17.60;81.60;;;;;;5056958;28;20043;-51
2023/10/17 10:40:17;;;;;;;6.28;2.95;;;17.60;77.80;;;;;;5056166;28;20120;-49
2023/10/17 10:42:47;;;;;;;6.75;2.55;;;17.20;81.20;;;;;;5057257;28;20398;-49
2023/10/17 10:45:25;;;;;;;;;;;17.30;79.40;;;;;;5057579;28;20041;-48
2023/10/17 10:48:01;;;;;;;8.13;3.30;;;17.70;76.60;;;;;;5056900;28;19912;-49
2023/10/17 10:50:31;;;;;;;6.10;2.22;;;17.70;77.80;;;;;;5056714;28;20029;-49
2023/10/17 10:53:01;;;;;;;5.30;1.92;;;17.80;73.00;;;;;;5056697;28;20121;-51
2023/10/17 10:55:27;;;;;;;4.03;2.05;;;17.90;60.50;;;;;;5056655;28;20082;-47
2023/10/17 10:57:53;;;;;;;6.00;2.10;;;17.50;59.50;;;;;;5056246;28;20040;-48
2023/10/17 11:00:19;;;;;;;5.95;3.28;;;17.50;62.80;;;;;;5056545;28;20025;-49
2023/10/17 11:02:44;;;;;;;7.28;2.50;;;18.00;61.10;;;;;;5056454;28;20037;-51
2023/10/17 11:05:14;;;;;;;6.75;2.67;;;18.10;63.80;;;;;;5056415;28;20033;-51
2023/10/17 11:07:41;;;;;;;2.88;1.77;;;18.50;58.70;;;;;;5056541;28;20037;-51
2023/10/17 11:10:08;;;;;;;3.65;2.20;;;18.20;55.20;;;;;;5056656;28;20083;-51
2023/10/17 11:12:34;;;;;;;6.43;2.35;;;17.60;55.10;;;;;;5056360;28;20442;-51
2023/10/17 11:15:11;;;;;;;4.85;2.15;;;17.20;58.50;;;;;;5056304;28;20037;-52
2023/10/17 11:17:38;;;;;;;5.15;2.28;;;17.00;59.20;;;;;;5056244;28;20456;-52
2023/10/17 11:20:14;;;;;;;6.05;2.85;;;17.10;59.50;;;;;;5056392;28;20025;-52
2023/10/17 11:22:43;;;;;;;5.55;2.20;;;17.70;59.10;;;;;;5055260;28;20051;-52
2023/10/17 11:25:21;;;;;;;7.10;2.30;;;17.40;58.10;;;;;;5056211;28;20025;-51
2023/10/17 11:27:53;;;;;;;6.55;3.88;;;17.30;61.20;;;;;;5054994;28;20037;-50
2023/10/17 11:30:20;;;;;;;3.30;2.28;;;17.30;61.70;;;;;;5054701;28;20391;-51
2023/10/17 11:32:47;;;;;;;4.80;2.05;;;16.90;62.00;;;;;;5055571;28;20343;-52
2023/10/17 11:35:29;;;;;;;6.38;3.38;;;16.70;62.40;;;;;;5037835;28;20025;-51
2023/10/17 11:37:58;;;;;;;7.18;2.90;;;16.90;60.30;;;;;;5039148;28;20045;-51
2023/10/17 11:40:44;;;;;;;5.57;2.20;;;17.00;60.60;;;;;;5055650;28;20461;-51
2023/10/17 11:43:21;;;;;;;9.10;2.38;;;16.90;60.10;;;;;;5054475;28;20067;-51
2023/10/17 11:45:47;;;;;;;3.50;2.13;;;16.50;63.30;;;;;;5055535;28;20104;-51
2023/10/17 11:48:45;;;;;;;3.67;2.55;;;16.20;63.80;;;;;;5054495;28;20375;-50
2023/10/17 11:51:18;;;;;;;5.07;2.40;;;15.90;70.00;;;;;;5054456;28;20382;-47
2023/10/17 11:54:07;;;;;;;4.22;2.40;;;15.80;69.00;;;;;;5055754;28;20033;-47
2023/10/17 11:56:37;;;;;;;2.38;1.92;;;15.60;65.90;;;;;;5038905;28;20036;-48
2023/10/17 11:59:06;;;;;;;4.25;1.92;;;15.40;65.10;;;;;;5055414;28;20110;-49
2023/10/17 12:01:34;;;;;;;3.90;2.50;;;15.40;61.20;;;;;;5055527;28;20028;-49
2023/10/17 12:04:05;;;;;;;4.53;2.63;;;15.40;62.30;;;;;;5055383;28;20435;-53
2023/10/17 12:06:31;;;;;;;6.45;2.88;;;15.50;64.70;;;;;;5054981;28;20098;-50
2023/10/17 12:08:57;;;;;;;4.65;2.60;;;15.70;63.30;;;;;;5055354;28;20029;-53
2023/10/17 12:11:24;;;;;;;4.68;1.83;;;15.80;57.90;;;;;;5054391;28;20060;-51
2023/10/17 12:13:53;;;;;;;5.18;2.60;;;15.70;55.90;;;;;;5055463;28;20044;-50
2023/10/17 12:16:23;;;;;;;3.33;2.30;;;15.80;63.80;;;;;;5053786;28;20048;-51
2023/10/17 12:18:50;;;;;;;2.45;1.52;;;15.90;59.90;;;;;;5055129;28;20037;-49
2023/10/17 12:21:16;;;;;;;3.97;2.30;;;15.80;57.00;;;;;;5054846;28;20346;-52
2023/10/17 12:23:42;;;;;;;5.35;2.03;;;15.80;58.50;;;;;;5054958;28;20454;-51
2023/10/17 12:26:13;;;;;;;3.53;2.00;;;15.70;59.40;;;;;;5055124;28;20036;-49
2023/10/17 12:28:41;;;;;;;5.63;1.83;;;15.80;59.10;;;;;;5054661;28;20194;-51
2023/10/17 12:31:08;;;;;;;4.18;2.40;;;15.80;56.10;;;;;;5053292;28;20097;-51
2023/10/17 12:33:34;;;;;;;6.35;1.90;;;15.70;54.60;;;;;;5036922;28;20065;-50
2023/10/17 12:35:59;;;;;;;3.63;1.95;;;15.70;56.40;;;;;;5054945;28;20397;-50
2023/10/17 12:38:26;;;;;;;4.20;2.05;;;15.60;53.20;;;;;;5054667;28;20362;-51
2023/10/17 12:40:53;;;;;;;3.78;1.80;;;15.70;56.60;;;;;;5054894;28;20036;-50
2023/10/17 12:43:19;;;;;;;7.30;2.25;;;15.80;58.00;;;;;;5054505;28;20017;-51
2023/10/17 12:45:46;;;;;;;3.85;1.85;;;15.90;56.90;;;;;;5054979;28;20043;-49
2023/10/17 12:48:11;;;;;;;2.60;1.70;;;15.80;52.20;;;;;;5054289;28;20129;-50
2023/10/17 12:50:43;;;;;;;3.95;2.17;;;15.70;50.20;;;;;;5054830;28;20434;-48
2023/10/17 12:53:13;;;;;;;3.53;2.05;;;15.80;49.80;;;;;;5055379;28;20067;-50
2023/10/17 12:55:39;;;;;;;3.47;1.90;;;15.80;51.10;;;;;;5053336;28;20037;-51
2023/10/17 12:58:10;;;;;;;3.83;2.20;;;16.00;50.20;;;;;;5053367;28;20033;-50
2023/10/17 13:00:39;;;;;;;4.72;2.33;;;16.00;52.30;;;;;;5053286;28;20068;-51
2023/10/17 13:03:08;;;;;;;3.85;1.90;;;16.00;52.10;;;;;;5054044;28;20040;-50
2023/10/17 13:05:34;;;;;;;2.90;1.65;;;16.00;51.90;;;;;;5054111;28;20456;-50
2023/10/17 13:08:01;;;;;;;2.67;1.48;;;16.00;48.00;;;;;;5054443;28;20043;-50
2023/10/17 13:10:26;;;;;;;4.50;2.55;;;15.90;47.20;;;;;;5054191;28;20029;-50
2023/10/17 13:12:52;;;;;;;3.42;1.98;;;15.90;48.60;;;;;;5054252;28;20025;-50
2023/10/17 13:15:18;;;;;;;5.38;1.98;;;16.00;48.10;;;;;;5054411;28;20061;-51
2023/10/17 13:17:44;;;;;;;6.55;1.55;;;16.00;47.70;;;;;;5054318;28;20069;-50
2023/10/17 13:20:10;;;;;;;2.28;1.50;;;16.20;49.20;;;;;;5053991;28;20032;-47
2023/10/17 13:22:46;;;;;;;5.57;2.35;;;16.30;48.40;;;;;;5059714;28;20071;-49
2023/10/17 13:25:18;;;;;;;3.83;2.08;;;16.40;52.10;;;;;;5059730;28;20091;-50
2023/10/17 13:27:44;;;;;;;6.05;2.83;;;16.50;57.40;;;;;;5060978;28;20039;-51
2023/10/17 13:30:10;;;;;;;4.07;2.00;;;16.50;52.10;;;;;;5060882;28;20124;-50
2023/10/17 13:32:35;;;;;;;2.15;1.70;;;16.50;52.30;;;;;;5060532;28;20036;-49
2023/10/17 13:35:01;;;;;;;5.68;2.42;;;16.10;47.50;;;;;;5060671;28;20044;-50
2023/10/17 13:37:27;;;;;;;2.88;2.05;;;16.10;48.80;;;;;;5060728;28;20083;-51
2023/10/17 13:39:54;;;;;;;4.05;2.15;;;16.20;49.90;;;;;;5060822;28;20061;-48
2023/10/17 13:42:19;;;;;;;6.47;1.95;;;16.20;50.20;;;;;;5060420;28;20044;-51
2023/10/17 13:44:45;;;;;;;3.22;1.65;;;16.30;48.70;;;;;;5060646;28;20037;-50
2023/10/17 13:47:11;;;;;;;4.00;1.83;;;16.30;49.80;;;;;;5060234;28;20028;-51
2023/10/17 13:49:37;;;;;;;4.78;1.80;;;16.20;48.20;;;;;;5061091;28;20361;-49
2023/10/17 13:52:03;;;;;;;3.15;1.80;;;16.00;49.80;;;;;;5060564;28;20361;-50
2023/10/17 13:54:34;;;;;;;4.68;1.90;;;16.00;50.80;;;;;;5060662;28;20052;-54
2023/10/17 13:57:09;;;;;;;6.22;2.40;;;16.10;52.10;;;;;;5060493;28;20131;-51
2023/10/17 13:59:38;;;;;;;4.30;1.77;;;16.20;52.40;;;;;;5060764;28;20047;-51
2023/10/17 14:02:07;;;;;;;4.88;1.90;;;16.10;50.20;;;;;;5060605;28;20485;-52
2023/10/17 14:04:35;;;;;;;3.80;2.13;;;16.00;51.20;;;;;;5060428;28;20038;-51
2023/10/17 14:07:03;;;;;;;4.80;1.80;;;16.00;50.80;;;;;;5060198;28;20060;-48
2023/10/17 14:09:30;;;;;;;5.75;2.25;;;16.30;49.40;;;;;;5060535;28;20035;-48
2023/10/17 14:11:56;;;;;;;5.47;2.08;;;16.70;53.30;;;;;;5060688;28;20385;-48
2023/10/17 14:14:25;;;;;;;4.72;2.10;;;16.70;59.00;;;;;;5060311;28;20093;-47
2023/10/17 14:16:51;;;;;;;5.57;1.70;;;16.70;62.00;;;;;;5060327;28;20421;-49
2023/10/17 14:19:18;;;;;;;4.22;1.90;;;16.70;61.40;;;;;;5060047;28;20053;-51
2023/10/17 14:24:38;;;;;;;6.22;2.47;;;16.70;53.80;;;;;;5060290;28;20120;-51
2023/10/17 14:27:11;;;;;;;4.93;1.92;;;16.90;56.80;;;;;;5059417;28;20039;-51
2023/10/17 14:29:41;;;;;;;3.08;1.52;;;16.90;59.70;;;;;;5060493;28;20037;-51
2023/10/17 14:32:07;;;;;;;4.68;2.00;;;16.60;61.60;;;;;;5060491;28;20350;-52
2023/10/17 14:34:32;;;;;;;4.50;1.83;;;16.50;60.40;;;;;;5056244;28;20091;-50
2023/10/17 14:36:58;;;;;;;5.55;2.00;;;16.40;60.40;;;;;;5056526;28;20033;-47
2023/10/17 14:39:29;;;;;;;6.00;2.30;;;16.10;64.80;;;;;;5057357;28;20457;-52
2023/10/17 14:41:55;;;;;;;6.45;2.38;;;16.20;64.80;;;;;;5056971;28;20036;-49
2023/10/17 14:44:20;;;;;;;4.25;2.45;;;16.10;59.70;;;;;;5056794;28;20029;-51
2023/10/17 14:46:46;;;;;;;10.02;3.47;;;15.90;58.50;;;;;;5056844;28;20044;-50
2023/10/17 14:49:13;;;;;;;6.55;2.50;;;15.80;59.10;;;;;;5056795;28;20370;-51
2023/10/17 14:51:39;;;;;;;6.45;2.03;;;15.60;59.70;;;;;;5055561;28;20037;-47
2023/10/17 14:54:13;;;;;;;4.85;2.35;;;15.40;62.10;;;;;;5056546;28;20037;-52
2023/10/17 14:56:39;;;;;;;6.15;2.85;;;15.40;62.90;;;;;;5056825;28;20060;-52
2023/10/17 14:59:05;;;;;;;5.07;2.22;;;15.30;64.80;;;;;;5056576;28;20045;-52
2023/10/17 15:01:31;;;;;;;7.50;2.25;;;15.30;62.80;;;;;;5056413;28;20029;-51
2023/10/17 15:03:59;;;;;;;4.50;2.10;;;15.30;66.30;;;;;;5056634;28;20413;-52
2023/10/17 15:06:25;;;;;;;6.95;2.40;;;15.20;72.40;;;;;;5056170;28;20041;-52
2023/10/17 15:08:51;;;;;;;7.88;3.25;;;15.10;76.00;;;;;;5056225;28;20087;-51
2023/10/17 15:11:16;;;;;;;14.55;5.40;;;15.10;83.00;;;;;;5057128;28;20378;-53
2023/10/17 15:13:43;;;;;;;8.30;3.80;;;15.10;86.70;;;;;;5056531;28;20048;-52
2023/10/17 15:16:21;;;;;;;8.82;3.53;;;15.10;90.00;;;;;;5056388;28;20040;-51